Time;durP1;ratioP1;P1;durP2;ratioP2;P2;SDS_P1;SDS_P2;PMS_P1;PMS_P2;Temp;Humidity;BMP_temperature;BMP_pressure;BME280_temperature;BME280_humidity;BME280_pressure;Samples;Min_cycle;Max_cycle;Signal;HPM_P1;HPM_P2
2023/06/15 00:00:34;;;;;;;8.75;5.72;;;;;;;17.49;57.12;99081.13;4987393;28;20520;-79
2023/06/15 00:03:00;;;;;;;13.20;5.18;;;;;;;17.45;57.25;99071.19;5013470;28;20065;-79
2023/06/15 00:05:25;;;;;;;10.43;4.85;;;;;;;17.39;57.61;99078.50;5011684;28;20064;-80
2023/06/15 00:07:51;;;;;;;10.48;4.88;;;;;;;17.38;57.92;99076.91;4992296;28;20034;-80
2023/06/15 00:10:17;;;;;;;6.43;4.88;;;;;;;17.36;57.77;99070.19;5012537;28;20112;-80
2023/06/15 00:12:42;;;;;;;9.25;5.30;;;;;;;17.34;57.52;99073.19;4995150;28;20038;-80
2023/06/15 00:15:08;;;;;;;9.13;4.85;;;;;;;17.42;57.52;99077.13;5010426;28;20037;-80
2023/06/15 00:17:37;;;;;;;11.05;5.20;;;;;;;17.22;57.70;99078.97;5010625;28;20402;-80
2023/06/15 00:20:07;;;;;;;8.32;5.78;;;;;;;17.06;58.37;99066.72;4989687;28;20049;-80
2023/06/15 00:22:34;;;;;;;6.15;4.85;;;;;;;17.25;57.99;99086.47;5011866;28;20021;-80
2023/06/15 00:25:00;;;;;;;9.77;4.97;;;;;;;17.15;57.85;99077.69;5011160;28;20041;-80
2023/06/15 00:27:25;;;;;;;10.63;5.70;;;;;;;17.17;57.88;99073.63;5011427;28;20026;-79
2023/06/15 00:29:50;;;;;;;5.55;4.88;;;;;;;17.14;57.72;99076.09;5010588;28;20029;-80
2023/06/15 00:32:16;;;;;;;8.50;5.30;;;;;;;17.07;58.38;99062.94;5015168;28;20025;-80
2023/06/15 00:34:41;;;;;;;10.80;5.07;;;;;;;16.87;58.96;99062.31;4974792;28;20041;-80
2023/06/15 00:37:07;;;;;;;6.47;4.97;;;;;;;16.82;58.49;99052.38;5014520;28;20033;-79
2023/06/15 00:39:32;;;;;;;9.75;5.40;;;;;;;16.98;58.51;99061.94;4993427;28;20057;-80
2023/06/15 00:41:57;;;;;;;8.18;5.68;;;;;;;16.88;58.29;99063.94;5010064;28;20040;-80
2023/06/15 00:44:23;;;;;;;5.93;4.63;;;;;;;16.96;58.33;99079.50;5003951;28;20038;-80
2023/06/15 00:46:48;;;;;;;6.45;4.80;;;;;;;17.01;58.36;99087.56;5011513;28;20466;-79
2023/06/15 00:49:15;;;;;;;14.50;6.07;;;;;;;17.01;58.55;99082.16;5007089;28;20117;-79
2023/06/15 00:51:41;;;;;;;6.05;5.13;;;;;;;17.01;58.43;99082.97;5009309;28;20036;-80
2023/06/15 00:54:08;;;;;;;9.32;5.18;;;;;;;16.94;58.43;99070.91;5009583;28;20436;-80
2023/06/15 00:56:34;;;;;;;5.95;4.28;;;;;;;16.95;58.01;99072.50;5007797;28;20385;-80
2023/06/15 00:59:00;;;;;;;10.07;4.72;;;;;;;16.86;58.26;99075.00;5006485;28;20099;-80
2023/06/15 01:01:25;;;;;;;6.38;4.75;;;;;;;16.84;58.48;99076.38;4991236;28;20037;-79
2023/06/15 01:03:51;;;;;;;8.38;5.07;;;;;;;16.83;58.48;99085.56;5004574;28;20034;-80
2023/06/15 01:06:18;;;;;;;10.52;5.00;;;;;;;16.78;58.73;99077.50;5008360;28;20052;-80
2023/06/15 01:08:47;;;;;;;6.60;5.22;;;;;;;16.75;58.77;99088.88;5007421;28;20367;-80
2023/06/15 01:11:14;;;;;;;7.00;4.90;;;;;;;16.71;58.84;99087.81;5021273;28;20065;-79
2023/06/15 01:13:40;;;;;;;9.80;5.13;;;;;;;16.74;58.50;99089.94;4999858;28;20390;-80
2023/06/15 01:16:10;;;;;;;7.38;4.53;;;;;;;16.75;58.64;99075.38;5005147;28;20030;-80
2023/06/15 01:18:41;;;;;;;7.32;4.90;;;;;;;16.71;58.87;99085.13;5022605;28;20038;-79
2023/06/15 01:21:09;;;;;;;6.68;4.78;;;;;;;16.69;59.06;99081.88;5005826;28;20079;-80
2023/06/15 01:23:55;;;;;;;8.13;5.00;;;;;;;16.71;59.08;99088.59;4993073;28;20541;-80
2023/06/15 01:26:24;;;;;;;9.55;5.55;;;;;;;16.77;59.22;99078.59;5005174;28;20028;-80
2023/06/15 01:28:50;;;;;;;10.15;5.25;;;;;;;16.70;59.35;99083.50;5004907;28;20113;-80
2023/06/15 01:31:17;;;;;;;12.40;6.13;;;;;;;16.53;59.19;99073.13;5003065;28;20050;-80
2023/06/15 01:33:47;;;;;;;10.02;5.43;;;;;;;16.54;59.24;99072.03;5007652;28;20112;-80
2023/06/15 01:36:12;;;;;;;9.85;5.35;;;;;;;16.61;59.41;99074.41;4990835;28;20068;-79
2023/06/15 01:38:39;;;;;;;7.35;5.22;;;;;;;16.55;59.55;99081.75;4991179;28;20121;-80
2023/06/15 01:41:06;;;;;;;5.72;5.15;;;;;;;16.54;59.62;99080.13;5006307;28;20041;-80
2023/06/15 01:43:34;;;;;;;7.45;5.70;;;;;;;16.44;59.75;99067.53;5007059;28;20109;-80
2023/06/15 01:46:01;;;;;;;8.50;5.80;;;;;;;16.47;59.89;99080.41;5007530;28;20037;-80
2023/06/15 01:48:27;;;;;;;9.35;5.20;;;;;;;16.45;59.79;99077.19;5020452;28;20037;-80
2023/06/15 01:50:54;;;;;;;7.78;5.70;;;;;;;16.56;59.35;99077.13;5001561;28;20029;-80
2023/06/15 01:53:19;;;;;;;7.15;5.03;;;;;;;16.40;60.26;99071.84;5005547;28;20693;-80
2023/06/15 01:55:44;;;;;;;10.98;5.70;;;;;;;16.35;60.44;99074.59;4994664;28;20076;-80
2023/06/15 01:58:16;;;;;;;7.30;5.00;;;;;;;16.45;59.72;99068.31;5008516;28;20096;-79
2023/06/15 02:00:42;;;;;;;12.13;5.50;;;;;;;16.42;59.65;99066.97;5003950;28;20029;-80
2023/06/15 02:03:08;;;;;;;7.10;6.10;;;;;;;16.41;60.20;99080.72;5016633;28;20061;-80
2023/06/15 02:05:39;;;;;;;6.97;5.68;;;;;;;16.33;60.03;99075.94;5005430;28;20052;-79
2023/06/15 02:08:05;;;;;;;7.43;5.50;;;;;;;16.36;60.06;99081.56;4989963;28;20034;-80
2023/06/15 02:10:31;;;;;;;6.88;5.32;;;;;;;16.27;59.96;99075.16;4986245;28;20034;-80
2023/06/15 02:12:56;;;;;;;12.00;6.05;;;;;;;16.20;60.15;99065.78;5006411;28;20099;-80
2023/06/15 02:15:22;;;;;;;8.73;5.50;;;;;;;16.21;60.30;99070.09;5001374;28;20049;-80
2023/06/15 02:17:48;;;;;;;12.93;6.13;;;;;;;16.21;60.00;99072.78;4988913;28;20167;-80
2023/06/15 02:20:14;;;;;;;8.05;5.65;;;;;;;16.18;60.27;99071.47;5005613;28;20038;-80
2023/06/15 02:22:40;;;;;;;7.88;5.18;;;;;;;16.18;59.85;99076.03;4996347;28;20030;-79
2023/06/15 02:25:07;;;;;;;8.48;5.25;;;;;;;16.16;60.08;99075.53;5007586;28;20075;-80
2023/06/15 02:27:33;;;;;;;6.68;5.40;;;;;;;16.10;60.11;99063.16;5006435;28;20037;-79
2023/06/15 02:29:59;;;;;;;9.30;6.00;;;;;;;16.09;60.58;99070.44;5006448;28;20398;-80
2023/06/15 02:32:34;;;;;;;11.05;6.50;;;;;;;16.12;60.63;99075.25;4994327;28;20344;-79
2023/06/15 02:35:01;;;;;;;9.98;5.63;;;;;;;16.04;60.30;99069.66;5012822;28;20068;-79
2023/06/15 02:37:27;;;;;;;10.38;5.85;;;;;;;15.94;60.83;99073.22;4994660;28;20034;-80
2023/06/15 02:39:52;;;;;;;10.38;5.82;;;;;;;15.93;60.54;99066.22;5010851;28;20061;-80
2023/06/15 02:42:18;;;;;;;9.00;5.95;;;;;;;16.05;60.63;99071.28;4992812;28;20389;-80
2023/06/15 02:44:43;;;;;;;6.97;4.82;;;;;;;15.94;60.39;99078.63;4991328;28;20026;-80
2023/06/15 02:47:08;;;;;;;7.20;5.50;;;;;;;15.92;60.49;99066.50;5014241;28;20430;-80
2023/06/15 02:49:34;;;;;;;6.20;5.57;;;;;;;16.00;59.93;99074.81;5008263;28;20112;-80
2023/06/15 02:51:59;;;;;;;9.25;4.82;;;;;;;15.87;60.20;99078.09;5012163;28;20087;-80
2023/06/15 02:54:25;;;;;;;10.20;5.00;;;;;;;15.87;60.38;99082.69;4987627;28;20131;-80
2023/06/15 02:56:51;;;;;;;9.35;4.78;;;;;;;15.85;60.57;99080.28;5008569;28;20065;-80
2023/06/15 02:59:16;;;;;;;9.68;4.85;;;;;;;15.79;60.42;99076.00;5000888;28;20068;-81
2023/06/15 03:01:42;;;;;;;8.27;6.03;;;;;;;15.62;60.81;99070.13;5008048;28;20026;-80
2023/06/15 03:04:13;;;;;;;8.80;5.15;;;;;;;15.61;61.12;99082.00;5006278;28;20030;-80
2023/06/15 03:06:40;;;;;;;9.30;5.45;;;;;;;15.64;60.62;99082.22;4993428;28;20026;-81
2023/06/15 03:09:07;;;;;;;8.77;5.53;;;;;;;15.55;61.10;99069.66;5004264;28;20076;-80
2023/06/15 03:11:32;;;;;;;7.97;5.57;;;;;;;15.60;60.96;99074.97;4984097;28;21305;-80
2023/06/15 03:13:57;;;;;;;13.48;6.10;;;;;;;15.61;60.91;99077.41;5002214;28;20046;-80
2023/06/15 03:16:25;;;;;;;9.73;5.43;;;;;;;15.61;60.95;99084.69;5007433;28;20433;-80
2023/06/15 03:18:52;;;;;;;10.63;6.25;;;;;;;15.55;60.87;99088.47;5002597;28;20029;-80
2023/06/15 03:21:20;;;;;;;8.55;6.30;;;;;;;15.60;60.54;99083.06;5007914;28;20046;-78
2023/06/15 03:23:45;;;;;;;7.18;6.25;;;;;;;15.61;60.86;99090.88;4977086;28;20072;-79
2023/06/15 03:26:11;;;;;;;7.53;5.53;;;;;;;15.52;61.17;99094.38;4993147;28;20430;-79
2023/06/15 03:28:38;;;;;;;7.13;5.57;;;;;;;15.58;61.14;99098.66;5017274;28;20117;-79
2023/06/15 03:31:04;;;;;;;8.63;5.63;;;;;;;15.58;60.74;99093.28;5028851;28;20041;-80
2023/06/15 03:33:30;;;;;;;7.43;5.57;;;;;;;15.50;60.68;99093.88;4999785;28;20052;-80
2023/06/15 03:35:57;;;;;;;8.55;6.30;;;;;;;15.57;61.32;99091.69;5006812;28;20038;-80
2023/06/15 03:38:23;;;;;;;7.28;4.97;;;;;;;15.58;61.15;99090.59;5007390;28;20030;-80
2023/06/15 03:40:49;;;;;;;7.72;5.57;;;;;;;15.53;61.21;99096.00;5009300;28;20033;-80
2023/06/15 03:43:15;;;;;;;6.85;5.45;;;;;;;15.55;61.04;99083.88;5008653;28;20080;-80
2023/06/15 03:45:40;;;;;;;8.07;5.00;;;;;;;15.54;61.02;99079.59;5005254;28;20034;-80
2023/06/15 03:48:06;;;;;;;9.05;5.85;;;;;;;15.63;61.24;99088.72;5008384;28;20033;-80
2023/06/15 03:50:32;;;;;;;10.02;5.50;;;;;;;15.64;61.71;99101.06;4996583;28;20537;-79
2023/06/15 03:52:58;;;;;;;9.43;5.65;;;;;;;15.66;61.38;99095.44;5004909;28;20041;-80
2023/06/15 03:55:25;;;;;;;9.50;5.53;;;;;;;15.53;61.76;99104.09;5003347;28;20501;-79
2023/06/15 03:57:50;;;;;;;7.28;5.75;;;;;;;15.61;61.64;99101.63;4991742;28;20513;-79
2023/06/15 04:00:16;;;;;;;10.90;6.35;;;;;;;15.60;61.80;99101.88;5018658;28;20038;-79
2023/06/15 04:02:41;;;;;;;7.68;5.82;;;;;;;15.68;62.01;99106.72;5006227;28;20096;-79
2023/06/15 04:05:07;;;;;;;11.15;6.10;;;;;;;15.66;61.97;99108.88;5001453;28;20741;-79
2023/06/15 04:07:32;;;;;;;8.63;6.63;;;;;;;15.64;61.73;99097.56;4989583;28;20509;-79
2023/06/15 04:09:59;;;;;;;6.10;5.32;;;;;;;15.79;61.52;99108.28;5001519;28;20041;-79
2023/06/15 04:12:24;;;;;;;7.68;5.18;;;;;;;15.77;61.59;99100.47;5003945;28;20525;-79
2023/06/15 04:14:50;;;;;;;9.38;5.45;;;;;;;15.82;61.24;99107.72;5000456;28;20026;-79
2023/06/15 04:17:16;;;;;;;8.02;5.00;;;;;;;15.85;61.49;99107.19;4987005;28;20037;-79
2023/06/15 04:19:41;;;;;;;8.05;5.75;;;;;;;15.94;61.72;99110.91;4982522;28;20414;-79
2023/06/15 04:22:08;;;;;;;8.50;5.53;;;;;;;15.93;61.19;99108.47;5010825;28;20034;-80
2023/06/15 04:24:33;;;;;;;11.70;5.53;;;;;;;16.01;61.16;99111.41;5006329;28;20137;-79
2023/06/15 04:26:59;;;;;;;9.30;5.75;;;;;;;16.07;61.20;99106.81;4995788;28;20037;-80
2023/06/15 04:29:29;;;;;;;6.13;5.38;;;;;;;16.18;61.15;99111.88;5000819;28;20041;-79
2023/06/15 04:31:57;;;;;;;8.70;6.47;;;;;;;16.29;61.06;99108.00;5008978;28;20034;-79
2023/06/15 04:34:26;;;;;;;8.05;5.50;;;;;;;16.35;61.39;99109.59;5006511;28;20034;-80
2023/06/15 04:36:54;;;;;;;10.75;7.07;;;;;;;16.46;60.81;99113.84;4993011;28;20618;-80
2023/06/15 04:39:26;;;;;;;15.07;7.15;;;;;;;16.36;61.98;99111.19;5014460;28;20034;-80
2023/06/15 04:41:51;;;;;;;7.18;6.47;;;;;;;16.54;61.31;99109.78;4995348;28;20387;-80
2023/06/15 04:44:17;;;;;;;9.77;6.70;;;;;;;16.29;63.81;99118.78;4993943;28;20029;-80
2023/06/15 04:46:42;;;;;;;10.70;6.32;;;;;;;16.05;64.93;99107.09;5008403;28;20040;-80
2023/06/15 04:49:12;;;;;;;11.15;7.03;;;;;;;16.06;64.72;99113.25;5000609;28;20378;-81
2023/06/15 04:51:38;;;;;;;9.50;6.75;;;;;;;15.99;65.70;99116.25;4994489;28;20038;-80
2023/06/15 04:54:03;;;;;;;7.93;6.55;;;;;;;16.08;65.40;99119.19;5007565;28;20045;-80
2023/06/15 04:56:29;;;;;;;13.32;7.43;;;;;;;16.04;65.15;99123.50;5004655;28;20422;-80
2023/06/15 04:58:55;;;;;;;11.57;6.78;;;;;;;16.05;65.07;99123.25;4999411;28;20049;-82
2023/06/15 05:01:21;;;;;;;8.98;6.35;;;;;;;15.89;65.23;99121.69;5005942;28;20034;-80
2023/06/15 05:03:46;;;;;;;10.80;6.72;;;;;;;16.15;65.43;99133.16;5023114;28;20029;-80
2023/06/15 05:06:12;;;;;;;10.02;7.45;;;;;;;15.95;65.26;99131.34;5012939;28;20069;-80
2023/06/15 05:08:37;;;;;;;21.55;8.07;;;;;;;15.59;66.57;99135.28;5010115;28;20506;-80
2023/06/15 05:11:03;;;;;;;13.95;7.65;;;;;;;14.99;67.71;99120.81;4992766;28;20037;-80
2023/06/15 05:13:30;;;;;;;14.25;8.13;;;;;;;15.10;67.43;99131.56;5011560;28;20026;-80
2023/06/15 05:15:55;;;;;;;12.55;8.30;;;;;;;15.12;67.16;99135.59;5017928;28;20382;-80
2023/06/15 05:18:21;;;;;;;14.40;7.22;;;;;;;15.64;66.38;99129.84;5008242;28;20030;-80
2023/06/15 05:20:46;;;;;;;13.00;6.50;;;;;;;16.68;62.45;99143.09;5012400;28;20025;-80
2023/06/15 05:23:13;;;;;;;12.60;7.50;;;;;;;16.19;63.64;99145.78;5013376;28;20053;-80
2023/06/15 05:25:38;;;;;;;10.63;7.07;;;;;;;17.07;61.42;99148.44;5011437;28;20061;-80
2023/06/15 05:28:03;;;;;;;13.02;8.10;;;;;;;15.85;65.22;99144.06;5017849;28;20084;-80
2023/06/15 05:30:29;;;;;;;12.98;8.27;;;;;;;15.36;66.59;99125.06;5009066;28;20549;-80
2023/06/15 05:32:55;;;;;;;19.92;9.68;;;;;;;15.42;67.21;99145.50;4991920;28;20045;-80
2023/06/15 05:35:21;;;;;;;13.45;8.88;;;;;;;15.99;65.78;99145.09;5010182;28;20038;-81
2023/06/15 05:37:55;;;;;;;12.95;8.77;;;;;;;15.96;65.36;99135.69;5009026;28;20609;-80
2023/06/15 05:40:21;;;;;;;12.32;6.60;;;;;;;16.93;62.00;99145.59;4994350;28;20522;-81
2023/06/15 05:42:46;;;;;;;10.32;6.88;;;;;;;17.39;60.86;99143.28;5010506;28;20109;-80
2023/06/15 05:45:12;;;;;;;12.07;8.02;;;;;;;16.90;62.95;99146.16;5007787;28;20056;-80
2023/06/15 05:47:37;;;;;;;10.68;7.57;;;;;;;16.88;62.14;99142.94;5008526;28;20029;-81
2023/06/15 05:50:03;;;;;;;10.25;7.50;;;;;;;16.72;64.29;99156.81;5010436;28;20025;-81
2023/06/15 05:52:29;;;;;;;11.43;6.38;;;;;;;16.33;64.03;99156.75;5007959;28;20030;-80
2023/06/15 05:54:54;;;;;;;13.40;7.25;;;;;;;16.99;62.45;99154.44;5010818;28;20493;-82
2023/06/15 05:57:20;;;;;;;12.15;7.50;;;;;;;16.79;63.50;99144.63;4995428;28;20125;-82
2023/06/15 05:59:46;;;;;;;10.77;7.68;;;;;;;16.48;65.07;99157.47;5010697;28;20088;-82
2023/06/15 06:02:12;;;;;;;12.80;6.60;;;;;;;16.49;63.77;99153.69;5010667;28;20463;-82
2023/06/15 06:04:38;;;;;;;12.18;7.88;;;;;;;15.93;65.60;99152.38;5018088;28;20032;-81
2023/06/15 06:07:06;;;;;;;15.57;8.02;;;;;;;15.57;66.37;99157.06;5013987;28;20449;-81
2023/06/15 06:09:36;;;;;;;13.13;7.50;;;;;;;15.19;67.26;99159.50;5012219;28;20478;-81
2023/06/15 06:12:03;;;;;;;10.77;7.57;;;;;;;15.39;66.87;99154.13;5021680;28;20025;-81
2023/06/15 06:14:29;;;;;;;8.68;6.15;;;;;;;15.37;67.06;99156.28;4994603;28;20516;-80
2023/06/15 06:16:55;;;;;;;12.27;7.18;;;;;;;15.55;67.80;99158.44;5027101;28;20082;-80
2023/06/15 06:19:22;;;;;;;13.35;7.20;;;;;;;15.37;66.48;99153.59;5026591;28;20022;-80
2023/06/15 06:21:47;;;;;;;10.18;6.60;;;;;;;15.75;66.82;99161.84;5027608;28;20084;-81
2023/06/15 06:24:13;;;;;;;12.25;6.47;;;;;;;15.77;66.08;99157.00;5026210;28;20195;-81
2023/06/15 06:26:38;;;;;;;9.63;6.75;;;;;;;15.58;66.48;99163.25;5014654;28;20030;-81
2023/06/15 06:29:04;;;;;;;14.93;6.85;;;;;;;15.50;66.18;99136.91;4996360;28;20042;-81
2023/06/15 06:31:30;;;;;;;11.98;6.10;;;;;;;16.80;62.52;99164.28;4991148;28;20393;-81
2023/06/15 06:33:56;;;;;;;9.82;6.07;;;;;;;16.99;62.57;99149.06;5010769;28;20330;-81
2023/06/15 06:36:21;;;;;;;9.60;6.72;;;;;;;16.61;63.19;99166.03;5023602;28;20385;-82
2023/06/15 06:38:47;;;;;;;12.73;6.50;;;;;;;16.14;62.69;99153.88;5021246;28;20034;-81
2023/06/15 06:41:13;;;;;;;9.27;6.50;;;;;;;16.09;63.80;99159.31;5002133;28;20030;-81
2023/06/15 06:43:39;;;;;;;10.98;6.30;;;;;;;16.61;62.85;99168.75;5025839;28;20473;-83
2023/06/15 06:46:05;;;;;;;14.18;6.38;;;;;;;15.97;65.02;99158.00;5034303;28;20048;-82
2023/06/15 06:48:30;;;;;;;7.15;5.93;;;;;;;16.47;65.34;99150.47;5021979;28;20025;-81
2023/06/15 06:50:55;;;;;;;11.35;7.00;;;;;;;16.22;64.47;99156.00;5021909;28;20034;-84
2023/06/15 06:53:21;;;;;;;13.18;6.28;;;;;;;16.60;63.84;99156.38;5020101;28;20037;-82
2023/06/15 06:55:47;;;;;;;10.13;6.00;;;;;;;16.77;62.38;99162.19;5012764;28;20030;-84
2023/06/15 06:58:13;;;;;;;14.55;6.90;;;;;;;16.81;63.06;99158.63;5015278;28;20034;-82
2023/06/15 07:00:41;;;;;;;8.73;5.55;;;;;;;17.30;62.21;99152.28;5022085;28;20022;-82
2023/06/15 07:03:09;;;;;;;9.25;6.85;;;;;;;17.50;61.59;99162.88;5006261;28;20122;-82
2023/06/15 07:05:35;;;;;;;9.73;7.10;;;;;;;17.11;62.75;99162.97;5006978;28;20029;-83
2023/06/15 07:08:01;;;;;;;9.52;5.80;;;;;;;17.16;62.65;99150.25;4998810;28;20045;-83
2023/06/15 07:10:27;;;;;;;14.30;6.25;;;;;;;17.77;61.11;99150.47;5001005;28;20558;-83
2023/06/15 07:12:55;;;;;;;9.27;6.18;;;;;;;17.09;62.37;99159.75;5030060;28;20032;-83
2023/06/15 07:15:22;;;;;;;9.38;6.18;;;;;;;17.79;60.55;99158.28;5030354;28;20493;-83
2023/06/15 07:17:47;;;;;;;7.55;5.28;;;;;;;18.55;58.83;99161.63;5017242;28;20030;-83
2023/06/15 07:20:12;;;;;;;17.33;5.93;;;;;;;17.99;60.62;99160.75;5035285;28;20076;-81
2023/06/15 07:22:38;;;;;;;7.38;5.53;;;;;;;18.90;57.95;99165.69;5016670;28;20039;-81
2023/06/15 07:25:03;;;;;;;13.90;6.20;;;;;;;18.33;60.18;99161.38;4997399;28;20071;-81
2023/06/15 07:27:29;;;;;;;10.45;5.80;;;;;;;18.56;58.84;99147.03;5015165;28;20034;-81
2023/06/15 07:29:54;;;;;;;12.40;5.75;;;;;;;17.94;59.91;99152.69;5015298;28;20029;-82
2023/06/15 07:32:20;;;;;;;8.25;5.20;;;;;;;18.56;59.95;99159.75;4997513;28;20037;-81
2023/06/15 07:34:45;;;;;;;11.93;5.07;;;;;;;17.91;59.29;99156.75;5014526;28;20030;-81
2023/06/15 07:37:11;;;;;;;10.40;5.60;;;;;;;17.75;59.16;99152.66;5014970;28;20534;-81
2023/06/15 07:39:36;;;;;;;6.43;4.78;;;;;;;18.25;59.21;99150.41;5015626;28;20033;-83
2023/06/15 07:42:02;;;;;;;8.63;5.32;;;;;;;18.14;57.61;99138.94;5021449;28;20442;-82
2023/06/15 07:44:28;;;;;;;6.32;5.15;;;;;;;18.09;58.23;99147.09;5020574;28;20083;-81
2023/06/15 07:46:53;;;;;;;5.55;4.60;;;;;;;19.01;56.96;99144.69;5015050;28;20363;-81
2023/06/15 07:49:19;;;;;;;5.60;4.70;;;;;;;19.09;57.11;99149.44;4997955;28;20033;-81
2023/06/15 07:51:45;;;;;;;7.95;4.75;;;;;;;18.34;55.52;99151.38;5018956;28;20096;-81
2023/06/15 07:54:11;;;;;;;12.90;5.65;;;;;;;18.20;55.47;99147.75;5026454;28;20038;-81
2023/06/15 07:56:36;;;;;;;7.95;5.28;;;;;;;17.95;56.19;99149.69;5008865;28;20037;-81
2023/06/15 07:59:02;;;;;;;9.05;4.82;;;;;;;17.91;56.34;99132.47;5021183;28;20032;-81
2023/06/15 08:01:27;;;;;;;6.35;5.10;;;;;;;18.19;56.01;99154.28;5013248;28;20026;-81
2023/06/15 08:03:53;;;;;;;11.80;5.68;;;;;;;18.05;56.58;99129.88;5014367;28;20059;-81
2023/06/15 08:06:18;;;;;;;10.13;4.80;;;;;;;18.28;55.97;99145.22;5015094;28;20026;-81
2023/06/15 08:08:45;;;;;;;10.80;4.75;;;;;;;18.23;56.05;99139.91;5020780;28;20112;-81
2023/06/15 08:11:10;;;;;;;7.55;4.85;;;;;;;18.29;54.19;99148.72;5024811;28;20037;-81
2023/06/15 08:13:37;;;;;;;9.80;5.50;;;;;;;18.48;55.49;99150.38;5002202;28;20033;-81
2023/06/15 08:16:03;;;;;;;7.45;4.60;;;;;;;19.33;53.84;99134.66;4996738;28;20034;-82
2023/06/15 08:18:29;;;;;;;11.55;4.57;;;;;;;18.58;50.43;99139.44;5028440;28;20080;-82
2023/06/15 08:20:55;;;;;;;11.77;4.60;;;;;;;18.68;50.78;99143.84;4995963;28;20061;-81
2023/06/15 08:23:21;;;;;;;8.75;4.60;;;;;;;19.01;51.79;99141.97;5012609;28;20048;-82
2023/06/15 08:25:47;;;;;;;8.27;4.70;;;;;;;19.53;51.86;99138.91;5010974;28;20072;-82
2023/06/15 08:28:13;;;;;;;6.95;4.50;;;;;;;19.84;51.96;99139.13;5004423;28;20429;-82
2023/06/15 08:30:38;;;;;;;5.20;3.97;;;;;;;18.85;50.14;99132.53;5016872;28;20104;-82
2023/06/15 08:33:03;;;;;;;12.10;4.47;;;;;;;18.97;51.21;99139.06;4995093;28;20044;-82
2023/06/15 08:35:29;;;;;;;9.80;4.75;;;;;;;19.84;51.90;99134.53;5012309;28;20030;-82
2023/06/15 08:37:55;;;;;;;7.25;4.68;;;;;;;19.59;51.85;99131.50;5020473;28;20191;-82
2023/06/15 08:40:20;;;;;;;9.80;4.57;;;;;;;19.57;52.62;99133.72;5008288;28;20072;-82
2023/06/15 08:42:46;;;;;;;8.65;4.82;;;;;;;20.00;50.71;99129.59;5014309;28;20543;-82
2023/06/15 08:45:13;;;;;;;11.77;4.82;;;;;;;19.41;49.42;99125.88;5013506;28;20060;-83
2023/06/15 08:47:39;;;;;;;8.38;4.78;;;;;;;19.95;51.40;99138.63;5018071;28;20095;-82
2023/06/15 08:50:06;;;;;;;6.93;4.22;;;;;;;19.54;49.62;99137.03;5020403;28;20030;-81
2023/06/15 08:52:35;;;;;;;10.77;4.70;;;;;;;19.63;50.33;99129.81;5009662;28;20133;-81
2023/06/15 08:55:02;;;;;;;6.80;5.03;;;;;;;20.28;51.49;99133.09;5019616;28;20116;-81
2023/06/15 08:57:28;;;;;;;6.80;4.28;;;;;;;20.63;50.88;99137.72;5016222;28;20064;-81
2023/06/15 08:59:56;;;;;;;11.32;4.43;;;;;;;20.56;47.82;99140.03;5008895;28;20040;-82
2023/06/15 09:02:24;;;;;;;4.93;3.88;;;;;;;20.14;47.83;99133.06;5012583;28;20028;-81
2023/06/15 09:04:51;;;;;;;6.20;4.55;;;;;;;20.30;48.36;99128.97;5009908;28;20030;-82
2023/06/15 09:07:21;;;;;;;8.98;4.43;;;;;;;20.30;47.31;99128.16;5013088;28;20025;-82
2023/06/15 09:10:19;;;;;;;10.07;5.03;;;;;;;20.09;48.44;99123.16;5014299;28;20041;-82
2023/06/15 09:12:44;;;;;;;6.90;4.80;;;;;;;19.89;47.64;99128.19;5018496;28;20038;-82
2023/06/15 09:15:13;;;;;;;14.73;4.95;;;;;;;20.44;48.73;99132.47;5017491;28;20039;-82
2023/06/15 09:17:41;;;;;;;8.00;4.50;;;;;;;20.23;47.42;99135.91;5024580;28;20026;-82
2023/06/15 09:20:07;;;;;;;8.40;5.05;;;;;;;20.79;47.41;99144.41;5034977;28;20033;-82
2023/06/15 09:22:41;;;;;;;8.18;4.70;;;;;;;21.08;47.93;99125.00;5009537;28;20052;-82
2023/06/15 09:25:19;;;;;;;11.68;4.55;;;;;;;21.13;48.31;99122.13;5019904;28;20112;-82
2023/06/15 09:27:58;;;;;;;7.57;4.53;;;;;;;20.29;46.01;99119.22;5023224;28;20391;-82
2023/06/15 09:30:36;;;;;;;5.28;4.78;;;;;;;20.48;46.76;99114.47;5011131;28;20022;-82
2023/06/15 09:33:13;;;;;;;11.35;4.85;;;;;;;20.23;46.74;99123.16;5010229;28;20093;-82
2023/06/15 09:36:02;;;;;;;7.68;4.07;;;;;;;21.54;46.59;99118.03;5021967;28;20394;-82
2023/06/15 09:38:31;;;;;;;6.10;4.38;;;;;;;20.78;47.31;99107.50;5016906;28;20018;-81
2023/06/15 09:40:56;;;;;;;7.75;4.43;;;;;;;20.44;45.00;99118.91;5007935;28;20112;-82
2023/06/15 09:43:22;;;;;;;7.72;4.20;;;;;;;20.61;45.18;99123.66;5012051;28;20040;-82
2023/06/15 09:45:54;;;;;;;11.48;4.95;;;;;;;20.63;44.97;99116.03;5011223;28;20026;-82
2023/06/15 09:48:23;;;;;;;9.10;4.38;;;;;;;21.02;45.43;99116.13;5010326;28;20037;-81
2023/06/15 09:50:50;;;;;;;7.10;4.00;;;;;;;20.87;46.87;99122.75;5024638;28;20124;-81
2023/06/15 09:53:18;;;;;;;7.38;4.65;;;;;;;20.86;45.99;99109.47;5011870;28;20076;-82
2023/06/15 09:55:45;;;;;;;5.30;4.35;;;;;;;21.16;45.33;99100.63;5018484;28;20429;-82
2023/06/15 09:58:11;;;;;;;8.43;4.93;;;;;;;21.06;45.89;99105.47;5002186;28;20393;-82
2023/06/15 10:00:36;;;;;;;13.20;4.22;;;;;;;21.28;44.46;99113.59;5009411;28;20018;-82
2023/06/15 10:03:06;;;;;;;6.47;4.55;;;;;;;20.79;43.91;99101.00;5011062;28;20038;-82
2023/06/15 10:05:33;;;;;;;6.05;4.45;;;;;;;20.95;44.08;99110.34;5002248;28;20030;-82
2023/06/15 10:08:04;;;;;;;8.20;4.57;;;;;;;20.71;44.46;99099.81;5009334;28;20041;-82
2023/06/15 10:10:30;;;;;;;10.13;4.65;;;;;;;21.05;44.94;99103.91;5019522;28;20060;-82
2023/06/15 10:13:00;;;;;;;6.22;4.45;;;;;;;20.89;44.16;99100.72;5010163;28;20036;-82
2023/06/15 10:15:28;;;;;;;7.10;4.05;;;;;;;21.09;44.37;99094.81;5008082;28;20092;-82
2023/06/15 10:17:56;;;;;;;8.40;4.32;;;;;;;21.62;43.79;99102.91;5008713;28;20059;-82
2023/06/15 10:20:23;;;;;;;8.38;4.82;;;;;;;20.93;42.52;99096.28;5018852;28;20033;-82
2023/06/15 10:23:02;;;;;;;5.22;4.22;;;;;;;20.88;42.92;99108.06;5018435;28;20064;-82
2023/06/15 10:25:30;;;;;;;7.88;4.28;;;;;;;20.99;43.58;99088.81;5018804;28;20389;-82
2023/06/15 10:27:56;;;;;;;7.45;4.18;;;;;;;20.95;43.64;99096.00;5002496;28;20088;-82
2023/06/15 10:31:06;;;;;;;6.80;4.40;;;;;;;20.82;43.63;99089.50;5012830;28;20124;-82
2023/06/15 10:33:44;;;;;;;9.30;4.30;;;;;;;21.21;43.97;99097.75;4973734;28;20044;-81
2023/06/15 10:36:24;;;;;;;10.68;4.25;;;;;;;21.00;43.63;99102.06;5012882;28;20409;-81
2023/06/15 10:38:58;;;;;;;8.65;4.10;;;;;;;22.14;44.33;99090.28;5013291;28;20417;-82
2023/06/15 10:41:24;;;;;;;5.93;4.32;;;;;;;22.56;42.84;99083.25;5010061;28;20118;-83
2023/06/15 10:44:00;;;;;;;12.07;4.43;;;;;;;22.88;42.06;99096.38;5018882;28;20112;-83
2023/06/15 10:46:28;;;;;;;;;;;;;;;22.99;43.28;99087.56;5008790;28;20022;-82
2023/06/15 10:48:55;;;;;;;10.57;4.13;;;;;;;22.92;43.09;99089.16;5011126;28;19914;-82
2023/06/15 10:51:25;;;;;;;8.63;4.25;;;;;;;22.09;42.31;99090.41;5009214;28;20030;-82
2023/06/15 10:53:50;;;;;;;7.57;4.47;;;;;;;22.74;42.40;99079.41;5015832;28;20022;-83
2023/06/15 10:56:22;;;;;;;6.72;4.30;;;;;;;23.08;41.69;99080.16;5015691;28;20072;-83
2023/06/15 10:58:54;;;;;;;9.48;4.03;;;;;;;22.84;42.34;99079.09;5013346;28;20057;-82
2023/06/15 11:01:24;;;;;;;5.68;4.00;;;;;;;22.56;42.55;99069.66;5004085;28;20030;-82
2023/06/15 11:03:53;;;;;;;9.95;5.10;;;;;;;22.08;41.76;99077.94;5014484;28;20025;-82
2023/06/15 11:06:21;;;;;;;7.80;4.80;;;;;;;22.56;43.27;99096.84;5025983;28;20084;-82
2023/06/15 11:08:52;;;;;;;7.65;4.55;;;;;;;23.33;42.32;99092.13;5014378;28;20109;-82
2023/06/15 11:11:26;;;;;;;8.55;4.22;;;;;;;23.68;41.69;99082.66;5015358;28;20033;-82
2023/06/15 11:14:08;;;;;;;5.88;4.90;;;;;;;23.40;41.32;99086.97;4991656;28;20502;-82
2023/06/15 11:16:36;;;;;;;4.90;4.07;;;;;;;23.36;41.89;99086.03;5013740;28;20073;-82
2023/06/15 11:19:11;;;;;;;6.10;4.05;;;;;;;24.02;39.66;99080.88;4996176;28;20038;-83
2023/06/15 11:21:43;;;;;;;4.72;4.28;;;;;;;23.61;39.46;99076.94;5013819;28;20026;-83
2023/06/15 11:24:13;;;;;;;9.45;3.92;;;;;;;23.49;38.52;99070.59;5012818;28;20597;-83
2023/06/15 11:26:52;;;;;;;7.25;4.00;;;;;;;23.27;40.13;99068.06;5013920;28;20029;-82
2023/06/15 11:29:22;;;;;;;7.82;3.92;;;;;;;23.05;40.50;99067.19;5017779;28;20374;-82
2023/06/15 11:31:52;;;;;;;5.43;3.90;;;;;;;23.00;40.76;99067.34;5024781;28;20059;-82